Hauptseite
METAR-TAF:

METAR-TAF

Flughäfen :

Flughafen Kairo

Kairo, Ägypten

Breite: 30-08N, Länge: 031-24E, Höhe: 64 m

Beobachtung

Neuester Wetterbericht von vor 43 Minuten, um 15:30 UTC
Temperatur 22°C
Luftfeuchtigkeit 43%
Luftdruck 1011 hPa
Sichtweite 10 km oder mehr
Aufgelockert bewölkt in der Höhe von 2500 ft

METAR: HECA 141530Z 3004KT 9999 SCT025 22/09 Q1011 NOSIG

Zeit: 18:13 (16:13 UTC)

Prognose

Neuester Wetterbericht von vor 5 Stunden und 13 Minuten, um 11:00 UTC
Gültige Prognose vom 14 um 12 UTC bis 15 um 18 UTC
Wind 8 kt aus West/Nordwest
Sichtweite 10 km oder mehr
Aufgelockert bewölkt in der Höhe von 2500 ft
Zeitweise
vom 14 um 12 UTC bis 14 um 18 UTC
Sichtweite: 6000 m
Durchbrochene Bewölkung in der Höhe von 2000 ft, Kumulonimbus.

TAF: HECA 141100Z 1412/1518 30008KT 9999 SCT025 TEMPO 1412/1418 6000 TSSHRA BKN020CB

Wetterbeobachtungen und Prognosen von mehr als 4000 Flughäfen (METAR und TAF Bericht).

Die verfügbaren Stationen werden durch gelbe und rote Markierungen auf der Karte dargestellt.

Führen Sie die Maus auf sie, um den Namen der Station zu sehen.

Darauf klicken, um die Beobachtung von Wetterbeobachtungen und Prognosen zu sehen.

Um die Karte zu ändern : klicken Sie auf den grünen Tasten mit einem schwarzen Kreuz Zum Vergrößern, auf den grünen Button mit einem Gedankenstrich zu verkleinern, oder auf die grünen Pfeile für benachbarte Karten.


METAR-TAF: